sensor_id;sensor_type;location;lat;lon;timestamp;temperature;humidity
2897;DHT22;1458;49.728;9.228;2022-07-23T00:01:23;20.80;99.90
2897;DHT22;1458;49.728;9.228;2022-07-23T00:03:51;20.80;99.90
2897;DHT22;1458;49.728;9.228;2022-07-23T00:06:23;20.70;99.90
2897;DHT22;1458;49.728;9.228;2022-07-23T00:08:51;20.70;99.90
2897;DHT22;1458;49.728;9.228;2022-07-23T00:11:23;20.70;99.90
2897;DHT22;1458;49.728;9.228;2022-07-23T00:13:51;20.90;99.90
2897;DHT22;1458;49.728;9.228;2022-07-23T00:16:29;21.00;99.90
2897;DHT22;1458;49.728;9.228;2022-07-23T00:18:56;21.00;99.90
2897;DHT22;1458;49.728;9.228;2022-07-23T00:21:27;20.90;99.90
2897;DHT22;1458;49.728;9.228;2022-07-23T00:23:54;20.90;99.90
2897;DHT22;1458;49.728;9.228;2022-07-23T00:26:29;20.70;99.90
2897;DHT22;1458;49.728;9.228;2022-07-23T00:28:57;20.70;99.90
2897;DHT22;1458;49.728;9.228;2022-07-23T00:31:24;20.60;99.90
2897;DHT22;1458;49.728;9.228;2022-07-23T00:33:54;20.60;99.90
2897;DHT22;1458;49.728;9.228;2022-07-23T00:36:34;20.60;99.90
2897;DHT22;1458;49.728;9.228;2022-07-23T00:39:02;20.60;99.90
2897;DHT22;1458;49.728;9.228;2022-07-23T00:41:31;20.60;99.90
2897;DHT22;1458;49.728;9.228;2022-07-23T00:44:14;20.60;99.90
2897;DHT22;1458;49.728;9.228;2022-07-23T00:46:45;20.70;99.90
2897;DHT22;1458;49.728;9.228;2022-07-23T00:49:14;20.70;99.90
2897;DHT22;1458;49.728;9.228;2022-07-23T00:51:42;20.70;99.90
2897;DHT22;1458;49.728;9.228;2022-07-23T00:54:09;20.70;99.90
2897;DHT22;1458;49.728;9.228;2022-07-23T00:56:39;20.70;99.90
2897;DHT22;1458;49.728;9.228;2022-07-23T00:59:08;20.70;99.90
2897;DHT22;1458;49.728;9.228;2022-07-23T01:01:36;20.60;99.90
2897;DHT22;1458;49.728;9.228;2022-07-23T01:04:04;20.60;99.90
2897;DHT22;1458;49.728;9.228;2022-07-23T01:06:35;20.50;99.90
2897;DHT22;1458;49.728;9.228;2022-07-23T01:09:04;20.70;99.90
2897;DHT22;1458;49.728;9.228;2022-07-23T01:11:33;20.50;99.90
2897;DHT22;1458;49.728;9.228;2022-07-23T01:14:12;20.70;99.90
2897;DHT22;1458;49.728;9.228;2022-07-23T01:16:44;20.70;99.90
2897;DHT22;1458;49.728;9.228;2022-07-23T01:19:13;20.60;99.90
2897;DHT22;1458;49.728;9.228;2022-07-23T01:21:43;20.60;99.90
2897;DHT22;1458;49.728;9.228;2022-07-23T01:24:16;20.50;99.90
2897;DHT22;1458;49.728;9.228;2022-07-23T01:26:53;20.50;99.90
2897;DHT22;1458;49.728;9.228;2022-07-23T01:29:20;20.40;99.90
2897;DHT22;1458;49.728;9.228;2022-07-23T01:31:49;20.60;99.90
2897;DHT22;1458;49.728;9.228;2022-07-23T01:34:16;20.70;99.90
2897;DHT22;1458;49.728;9.228;2022-07-23T01:36:44;20.90;99.90
2897;DHT22;1458;49.728;9.228;2022-07-23T01:39:12;20.90;99.90
2897;DHT22;1458;49.728;9.228;2022-07-23T01:41:41;20.80;99.90
2897;DHT22;1458;49.728;9.228;2022-07-23T01:44:09;20.80;99.90
2897;DHT22;1458;49.728;9.228;2022-07-23T01:46:38;20.80;99.90
2897;DHT22;1458;49.728;9.228;2022-07-23T01:49:06;20.90;99.90
2897;DHT22;1458;49.728;9.228;2022-07-23T01:52:00;20.80;99.90
2897;DHT22;1458;49.728;9.228;2022-07-23T01:54:33;20.90;99.90
2897;DHT22;1458;49.728;9.228;2022-07-23T01:57:05;20.90;99.90
2897;DHT22;1458;49.728;9.228;2022-07-23T01:59:33;20.80;99.90
2897;DHT22;1458;49.728;9.228;2022-07-23T02:02:01;20.70;99.90
2897;DHT22;1458;49.728;9.228;2022-07-23T02:04:31;20.60;99.90
2897;DHT22;1458;49.728;9.228;2022-07-23T02:07:01;20.50;99.90
2897;DHT22;1458;49.728;9.228;2022-07-23T02:09:29;20.50;99.90
2897;DHT22;1458;49.728;9.228;2022-07-23T02:11:57;20.50;99.90
2897;DHT22;1458;49.728;9.228;2022-07-23T02:14:26;20.50;99.90
2897;DHT22;1458;49.728;9.228;2022-07-23T02:16:54;20.50;99.90
2897;DHT22;1458;49.728;9.228;2022-07-23T02:19:21;20.60;99.90
2897;DHT22;1458;49.728;9.228;2022-07-23T02:21:49;20.60;99.90
2897;DHT22;1458;49.728;9.228;2022-07-23T02:24:18;20.60;99.90
2897;DHT22;1458;49.728;9.228;2022-07-23T02:26:46;20.50;99.90
2897;DHT22;1458;49.728;9.228;2022-07-23T02:29:13;20.50;99.90
2897;DHT22;1458;49.728;9.228;2022-07-23T02:31:42;20.40;99.90
2897;DHT22;1458;49.728;9.228;2022-07-23T02:34:11;20.40;99.90
2897;DHT22;1458;49.728;9.228;2022-07-23T02:36:39;20.30;99.90
2897;DHT22;1458;49.728;9.228;2022-07-23T02:39:07;20.20;99.90
2897;DHT22;1458;49.728;9.228;2022-07-23T02:41:36;20.20;99.90
2897;DHT22;1458;49.728;9.228;2022-07-23T02:44:04;20.20;99.90
2897;DHT22;1458;49.728;9.228;2022-07-23T02:46:32;20.30;99.90
2897;DHT22;1458;49.728;9.228;2022-07-23T02:49:02;20.30;99.90
2897;DHT22;1458;49.728;9.228;2022-07-23T02:51:31;20.40;99.90
2897;DHT22;1458;49.728;9.228;2022-07-23T02:54:02;20.40;99.90
2897;DHT22;1458;49.728;9.228;2022-07-23T02:56:30;20.40;99.90
2897;DHT22;1458;49.728;9.228;2022-07-23T02:58:58;20.30;99.90
2897;DHT22;1458;49.728;9.228;2022-07-23T03:01:38;20.20;99.90
2897;DHT22;1458;49.728;9.228;2022-07-23T03:04:08;20.10;99.90
2897;DHT22;1458;49.728;9.228;2022-07-23T03:06:35;20.20;99.90
2897;DHT22;1458;49.728;9.228;2022-07-23T03:09:04;20.20;99.90
2897;DHT22;1458;49.728;9.228;2022-07-23T03:11:32;20.10;99.90
2897;DHT22;1458;49.728;9.228;2022-07-23T03:13:59;20.20;99.90
2897;DHT22;1458;49.728;9.228;2022-07-23T03:16:26;20.20;99.90
2897;DHT22;1458;49.728;9.228;2022-07-23T03:18:54;20.10;99.90
2897;DHT22;1458;49.728;9.228;2022-07-23T03:21:32;20.20;99.90
2897;DHT22;1458;49.728;9.228;2022-07-23T03:24:00;20.20;99.90
2897;DHT22;1458;49.728;9.228;2022-07-23T03:26:32;20.10;99.90
2897;DHT22;1458;49.728;9.228;2022-07-23T03:28:59;20.10;99.90
2897;DHT22;1458;49.728;9.228;2022-07-23T03:31:28;20.20;99.90
2897;DHT22;1458;49.728;9.228;2022-07-23T03:33:56;20.20;99.90
2897;DHT22;1458;49.728;9.228;2022-07-23T03:36:24;20.30;99.90
2897;DHT22;1458;49.728;9.228;2022-07-23T03:38:56;20.20;99.90
2897;DHT22;1458;49.728;9.228;2022-07-23T03:41:24;20.10;99.90
2897;DHT22;1458;49.728;9.228;2022-07-23T03:43:51;20.10;99.90
2897;DHT22;1458;49.728;9.228;2022-07-23T03:46:25;20.10;99.90
2897;DHT22;1458;49.728;9.228;2022-07-23T03:48:53;20.00;99.90
2897;DHT22;1458;49.728;9.228;2022-07-23T03:51:24;19.90;99.90
2897;DHT22;1458;49.728;9.228;2022-07-23T03:53:52;19.80;99.90
2897;DHT22;1458;49.728;9.228;2022-07-23T03:56:22;19.80;99.90
2897;DHT22;1458;49.728;9.228;2022-07-23T03:58:49;19.80;99.90
2897;DHT22;1458;49.728;9.228;2022-07-23T04:01:32;19.80;99.90
2897;DHT22;1458;49.728;9.228;2022-07-23T04:04:00;19.80;99.90
2897;DHT22;1458;49.728;9.228;2022-07-23T04:06:29;19.70;99.90
2897;DHT22;1458;49.728;9.228;2022-07-23T04:08:59;19.60;99.90
2897;DHT22;1458;49.728;9.228;2022-07-23T04:11:30;19.60;99.90
2897;DHT22;1458;49.728;9.228;2022-07-23T04:13:57;19.70;99.90
2897;DHT22;1458;49.728;9.228;2022-07-23T04:19:32;19.80;99.90
2897;DHT22;1458;49.728;9.228;2022-07-23T04:22:04;19.70;99.90
2897;DHT22;1458;49.728;9.228;2022-07-23T04:24:34;19.70;99.90
2897;DHT22;1458;49.728;9.228;2022-07-23T04:27:03;19.70;99.90
2897;DHT22;1458;49.728;9.228;2022-07-23T04:29:31;19.80;99.90
2897;DHT22;1458;49.728;9.228;2022-07-23T04:31:59;19.90;99.90
2897;DHT22;1458;49.728;9.228;2022-07-23T04:34:27;19.90;99.90
2897;DHT22;1458;49.728;9.228;2022-07-23T04:44:10;19.90;99.90
2897;DHT22;1458;49.728;9.228;2022-07-23T04:46:38;19.90;99.90
2897;DHT22;1458;49.728;9.228;2022-07-23T04:49:07;19.90;99.90
2897;DHT22;1458;49.728;9.228;2022-07-23T04:51:35;19.80;99.90
2897;DHT22;1458;49.728;9.228;2022-07-23T04:54:02;19.80;99.90
2897;DHT22;1458;49.728;9.228;2022-07-23T04:56:30;19.60;99.90
2897;DHT22;1458;49.728;9.228;2022-07-23T04:58:58;19.60;99.90
2897;DHT22;1458;49.728;9.228;2022-07-23T05:01:27;19.80;99.90
2897;DHT22;1458;49.728;9.228;2022-07-23T05:03:54;19.70;99.90
2897;DHT22;1458;49.728;9.228;2022-07-23T05:06:23;19.60;99.90
2897;DHT22;1458;49.728;9.228;2022-07-23T05:08:51;19.60;99.90
2897;DHT22;1458;49.728;9.228;2022-07-23T05:11:19;19.80;99.90
2897;DHT22;1458;49.728;9.228;2022-07-23T05:13:46;19.70;99.90
2897;DHT22;1458;49.728;9.228;2022-07-23T05:16:13;19.90;99.90
2897;DHT22;1458;49.728;9.228;2022-07-23T05:18:43;19.90;99.90
2897;DHT22;1458;49.728;9.228;2022-07-23T05:21:11;20.10;99.90
2897;DHT22;1458;49.728;9.228;2022-07-23T05:23:39;20.20;99.90
2897;DHT22;1458;49.728;9.228;2022-07-23T05:26:07;20.30;99.90
2897;DHT22;1458;49.728;9.228;2022-07-23T05:28:35;20.30;99.90
2897;DHT22;1458;49.728;9.228;2022-07-23T05:31:06;20.20;99.90
2897;DHT22;1458;49.728;9.228;2022-07-23T05:33:33;20.20;99.90
2897;DHT22;1458;49.728;9.228;2022-07-23T05:36:05;20.20;99.90
2897;DHT22;1458;49.728;9.228;2022-07-23T05:38:39;20.00;99.90
2897;DHT22;1458;49.728;9.228;2022-07-23T05:41:07;19.90;99.90
2897;DHT22;1458;49.728;9.228;2022-07-23T05:43:34;19.90;99.90
2897;DHT22;1458;49.728;9.228;2022-07-23T05:46:08;20.00;99.90
2897;DHT22;1458;49.728;9.228;2022-07-23T05:48:37;19.80;99.90
2897;DHT22;1458;49.728;9.228;2022-07-23T05:51:21;19.80;99.90
2897;DHT22;1458;49.728;9.228;2022-07-23T05:53:50;19.70;99.90
2897;DHT22;1458;49.728;9.228;2022-07-23T05:56:20;19.70;99.90
2897;DHT22;1458;49.728;9.228;2022-07-23T05:58:48;19.60;99.90
2897;DHT22;1458;49.728;9.228;2022-07-23T06:01:17;19.60;99.90
2897;DHT22;1458;49.728;9.228;2022-07-23T06:03:55;19.70;99.90
2897;DHT22;1458;49.728;9.228;2022-07-23T06:06:29;19.60;99.90
2897;DHT22;1458;49.728;9.228;2022-07-23T06:08:57;19.40;99.90
2897;DHT22;1458;49.728;9.228;2022-07-23T06:11:24;19.10;99.90
2897;DHT22;1458;49.728;9.228;2022-07-23T06:13:51;19.10;99.90
2897;DHT22;1458;49.728;9.228;2022-07-23T06:16:22;19.10;99.90
2897;DHT22;1458;49.728;9.228;2022-07-23T06:18:50;19.20;99.90
2897;DHT22;1458;49.728;9.228;2022-07-23T06:21:19;19.10;99.90
2897;DHT22;1458;49.728;9.228;2022-07-23T06:23:48;19.20;99.90
2897;DHT22;1458;49.728;9.228;2022-07-23T06:26:15;19.10;99.90
2897;DHT22;1458;49.728;9.228;2022-07-23T06:28:44;19.00;99.90
2897;DHT22;1458;49.728;9.228;2022-07-23T06:31:12;19.00;99.90
2897;DHT22;1458;49.728;9.228;2022-07-23T06:33:39;19.10;99.90
2897;DHT22;1458;49.728;9.228;2022-07-23T06:36:07;19.20;99.90
2897;DHT22;1458;49.728;9.228;2022-07-23T06:38:35;19.40;99.90
2897;DHT22;1458;49.728;9.228;2022-07-23T06:41:06;19.40;99.90
2897;DHT22;1458;49.728;9.228;2022-07-23T06:43:33;19.50;99.90
2897;DHT22;1458;49.728;9.228;2022-07-23T06:46:01;19.60;99.90
2897;DHT22;1458;49.728;9.228;2022-07-23T06:48:32;19.70;99.90
2897;DHT22;1458;49.728;9.228;2022-07-23T06:51:01;19.70;99.90
2897;DHT22;1458;49.728;9.228;2022-07-23T06:53:31;19.80;99.90
2897;DHT22;1458;49.728;9.228;2022-07-23T06:55:58;19.90;99.90
2897;DHT22;1458;49.728;9.228;2022-07-23T06:58:27;19.90;99.90
2897;DHT22;1458;49.728;9.228;2022-07-23T07:00:55;20.00;99.90
2897;DHT22;1458;49.728;9.228;2022-07-23T07:03:23;20.20;99.90
2897;DHT22;1458;49.728;9.228;2022-07-23T07:05:51;20.40;99.90
2897;DHT22;1458;49.728;9.228;2022-07-23T07:08:19;20.50;99.90
2897;DHT22;1458;49.728;9.228;2022-07-23T07:10:46;20.70;99.90
2897;DHT22;1458;49.728;9.228;2022-07-23T07:13:14;20.80;99.90
2897;DHT22;1458;49.728;9.228;2022-07-23T07:15:43;20.80;99.90
2897;DHT22;1458;49.728;9.228;2022-07-23T07:18:10;20.90;99.90
2897;DHT22;1458;49.728;9.228;2022-07-23T07:20:38;20.90;99.90
2897;DHT22;1458;49.728;9.228;2022-07-23T07:23:05;20.90;99.90
2897;DHT22;1458;49.728;9.228;2022-07-23T07:25:33;20.80;99.90
2897;DHT22;1458;49.728;9.228;2022-07-23T07:28:01;20.80;99.90
2897;DHT22;1458;49.728;9.228;2022-07-23T07:30:28;20.90;99.90
2897;DHT22;1458;49.728;9.228;2022-07-23T07:32:57;21.00;99.90
2897;DHT22;1458;49.728;9.228;2022-07-23T07:35:26;21.20;99.90
2897;DHT22;1458;49.728;9.228;2022-07-23T07:37:53;21.70;99.50
2897;DHT22;1458;49.728;9.228;2022-07-23T07:40:21;22.20;98.40
2897;DHT22;1458;49.728;9.228;2022-07-23T07:42:50;22.00;98.00
2897;DHT22;1458;49.728;9.228;2022-07-23T07:45:20;22.00;98.10
2897;DHT22;1458;49.728;9.228;2022-07-23T07:47:49;22.10;97.30
2897;DHT22;1458;49.728;9.228;2022-07-23T07:50:18;22.20;97.00
2897;DHT22;1458;49.728;9.228;2022-07-23T07:52:46;22.20;97.10
2897;DHT22;1458;49.728;9.228;2022-07-23T07:55:13;22.30;96.60
2897;DHT22;1458;49.728;9.228;2022-07-23T07:57:41;22.20;96.40
2897;DHT22;1458;49.728;9.228;2022-07-23T08:00:10;22.10;96.70
2897;DHT22;1458;49.728;9.228;2022-07-23T08:02:43;22.20;96.50
2897;DHT22;1458;49.728;9.228;2022-07-23T08:05:11;22.20;96.70
2897;DHT22;1458;49.728;9.228;2022-07-23T08:07:40;22.30;95.70
2897;DHT22;1458;49.728;9.228;2022-07-23T08:10:09;21.80;96.60
2897;DHT22;1458;49.728;9.228;2022-07-23T08:12:41;22.00;96.70
2897;DHT22;1458;49.728;9.228;2022-07-23T08:15:11;22.10;96.40
2897;DHT22;1458;49.728;9.228;2022-07-23T08:17:41;22.20;96.10
2897;DHT22;1458;49.728;9.228;2022-07-23T08:20:11;22.30;97.10
2897;DHT22;1458;49.728;9.228;2022-07-23T08:22:46;22.60;95.30
2897;DHT22;1458;49.728;9.228;2022-07-23T08:25:16;22.30;95.60
2897;DHT22;1458;49.728;9.228;2022-07-23T08:27:47;22.40;97.00
2897;DHT22;1458;49.728;9.228;2022-07-23T08:30:14;22.50;96.40
2897;DHT22;1458;49.728;9.228;2022-07-23T08:32:50;22.20;95.60
2897;DHT22;1458;49.728;9.228;2022-07-23T08:35:23;22.30;95.80
2897;DHT22;1458;49.728;9.228;2022-07-23T08:37:54;22.20;96.20
2897;DHT22;1458;49.728;9.228;2022-07-23T08:40:22;22.20;96.20
2897;DHT22;1458;49.728;9.228;2022-07-23T08:42:51;22.60;95.50
2897;DHT22;1458;49.728;9.228;2022-07-23T08:45:19;22.80;95.00
2897;DHT22;1458;49.728;9.228;2022-07-23T08:47:52;22.80;94.50
2897;DHT22;1458;49.728;9.228;2022-07-23T08:50:21;23.00;94.30
2897;DHT22;1458;49.728;9.228;2022-07-23T08:52:50;23.00;94.10
2897;DHT22;1458;49.728;9.228;2022-07-23T08:55:20;23.20;94.60
2897;DHT22;1458;49.728;9.228;2022-07-23T08:57:49;23.20;92.70
2897;DHT22;1458;49.728;9.228;2022-07-23T09:00:20;23.80;92.90
2897;DHT22;1458;49.728;9.228;2022-07-23T09:02:49;23.90;91.40
2897;DHT22;1458;49.728;9.228;2022-07-23T09:05:17;23.50;91.40
2897;DHT22;1458;49.728;9.228;2022-07-23T09:08:06;23.10;91.80
2897;DHT22;1458;49.728;9.228;2022-07-23T09:10:49;23.30;91.70
2897;DHT22;1458;49.728;9.228;2022-07-23T09:13:36;23.50;90.80
2897;DHT22;1458;49.728;9.228;2022-07-23T09:16:07;23.50;90.80
2897;DHT22;1458;49.728;9.228;2022-07-23T09:18:39;24.00;90.20
2897;DHT22;1458;49.728;9.228;2022-07-23T09:21:21;24.50;89.90
2897;DHT22;1458;49.728;9.228;2022-07-23T09:23:52;24.90;87.40
2897;DHT22;1458;49.728;9.228;2022-07-23T09:26:32;25.00;86.30
2897;DHT22;1458;49.728;9.228;2022-07-23T09:29:04;25.10;85.20
2897;DHT22;1458;49.728;9.228;2022-07-23T09:31:46;25.20;85.30
2897;DHT22;1458;49.728;9.228;2022-07-23T09:34:17;25.10;83.70
2897;DHT22;1458;49.728;9.228;2022-07-23T09:36:47;24.60;83.60
2897;DHT22;1458;49.728;9.228;2022-07-23T09:39:16;24.00;86.00
2897;DHT22;1458;49.728;9.228;2022-07-23T09:41:53;24.10;87.10
2897;DHT22;1458;49.728;9.228;2022-07-23T09:44:21;23.90;87.00
2897;DHT22;1458;49.728;9.228;2022-07-23T09:46:50;24.30;86.80
2897;DHT22;1458;49.728;9.228;2022-07-23T09:49:21;24.40;85.80
2897;DHT22;1458;49.728;9.228;2022-07-23T09:51:52;24.60;85.40
2897;DHT22;1458;49.728;9.228;2022-07-23T09:54:39;24.80;86.80
2897;DHT22;1458;49.728;9.228;2022-07-23T09:57:10;25.10;83.90
2897;DHT22;1458;49.728;9.228;2022-07-23T09:59:40;25.40;84.10
2897;DHT22;1458;49.728;9.228;2022-07-23T10:02:10;25.40;83.10
2897;DHT22;1458;49.728;9.228;2022-07-23T10:05:08;25.50;81.70
2897;DHT22;1458;49.728;9.228;2022-07-23T10:07:56;25.10;80.90
2897;DHT22;1458;49.728;9.228;2022-07-23T10:10:46;25.00;82.40
2897;DHT22;1458;49.728;9.228;2022-07-23T10:13:38;25.00;83.10
2897;DHT22;1458;49.728;9.228;2022-07-23T10:16:27;25.40;80.60
2897;DHT22;1458;49.728;9.228;2022-07-23T10:18:57;25.60;78.60
2897;DHT22;1458;49.728;9.228;2022-07-23T10:21:34;25.60;79.00
2897;DHT22;1458;49.728;9.228;2022-07-23T10:24:12;25.60;78.20
2897;DHT22;1458;49.728;9.228;2022-07-23T10:26:52;25.60;77.50
2897;DHT22;1458;49.728;9.228;2022-07-23T10:29:38;25.30;79.40
2897;DHT22;1458;49.728;9.228;2022-07-23T10:32:20;25.60;80.30
2897;DHT22;1458;49.728;9.228;2022-07-23T10:34:58;25.80;77.10
2897;DHT22;1458;49.728;9.228;2022-07-23T10:37:38;25.60;76.60
2897;DHT22;1458;49.728;9.228;2022-07-23T10:40:12;25.40;76.80
2897;DHT22;1458;49.728;9.228;2022-07-23T10:42:41;25.30;78.90
2897;DHT22;1458;49.728;9.228;2022-07-23T10:45:31;25.40;79.10
2897;DHT22;1458;49.728;9.228;2022-07-23T10:48:13;25.70;76.20
2897;DHT22;1458;49.728;9.228;2022-07-23T10:50:45;25.70;76.40
2897;DHT22;1458;49.728;9.228;2022-07-23T10:53:56;25.60;76.40
2897;DHT22;1458;49.728;9.228;2022-07-23T11:00:13;26.20;74.60
2897;DHT22;1458;49.728;9.228;2022-07-23T11:02:46;26.50;72.60
2897;DHT22;1458;49.728;9.228;2022-07-23T11:05:16;26.30;72.90
2897;DHT22;1458;49.728;9.228;2022-07-23T11:08:10;26.30;72.50
2897;DHT22;1458;49.728;9.228;2022-07-23T11:10:43;26.10;73.70
2897;DHT22;1458;49.728;9.228;2022-07-23T11:13:36;26.10;72.40
2897;DHT22;1458;49.728;9.228;2022-07-23T11:16:26;25.90;72.90
2897;DHT22;1458;49.728;9.228;2022-07-23T11:19:05;26.00;72.30
2897;DHT22;1458;49.728;9.228;2022-07-23T11:21:44;26.00;71.90
2897;DHT22;1458;49.728;9.228;2022-07-23T11:24:24;26.20;71.50
2897;DHT22;1458;49.728;9.228;2022-07-23T11:27:00;26.50;70.10
2897;DHT22;1458;49.728;9.228;2022-07-23T11:29:45;26.60;69.10
2897;DHT22;1458;49.728;9.228;2022-07-23T11:32:33;26.90;67.90
2897;DHT22;1458;49.728;9.228;2022-07-23T11:38:05;27.10;67.70
2897;DHT22;1458;49.728;9.228;2022-07-23T11:40:34;27.20;65.50
2897;DHT22;1458;49.728;9.228;2022-07-23T11:43:04;26.80;66.00
2897;DHT22;1458;49.728;9.228;2022-07-23T11:45:34;26.80;66.20
2897;DHT22;1458;49.728;9.228;2022-07-23T11:48:03;26.90;66.30
2897;DHT22;1458;49.728;9.228;2022-07-23T11:50:34;26.80;66.00
2897;DHT22;1458;49.728;9.228;2022-07-23T11:53:04;26.90;65.50
2897;DHT22;1458;49.728;9.228;2022-07-23T11:55:31;27.20;66.90
2897;DHT22;1458;49.728;9.228;2022-07-23T11:57:59;27.30;64.50
2897;DHT22;1458;49.728;9.228;2022-07-23T12:00:29;27.50;63.80
2897;DHT22;1458;49.728;9.228;2022-07-23T12:03:02;27.70;63.70
2897;DHT22;1458;49.728;9.228;2022-07-23T12:05:33;27.60;62.20
2897;DHT22;1458;49.728;9.228;2022-07-23T12:08:04;27.50;62.10
2897;DHT22;1458;49.728;9.228;2022-07-23T12:10:35;27.20;62.80
2897;DHT22;1458;49.728;9.228;2022-07-23T12:13:05;27.20;62.90
2897;DHT22;1458;49.728;9.228;2022-07-23T12:15:38;27.00;62.60
2897;DHT22;1458;49.728;9.228;2022-07-23T12:18:10;27.00;63.20
2897;DHT22;1458;49.728;9.228;2022-07-23T12:20:40;27.10;62.60
2897;DHT22;1458;49.728;9.228;2022-07-23T12:23:13;27.20;61.70
2897;DHT22;1458;49.728;9.228;2022-07-23T12:25:44;27.00;62.30
2897;DHT22;1458;49.728;9.228;2022-07-23T12:28:14;27.00;62.90
2897;DHT22;1458;49.728;9.228;2022-07-23T12:30:44;27.30;60.80
2897;DHT22;1458;49.728;9.228;2022-07-23T12:33:14;27.40;61.00
2897;DHT22;1458;49.728;9.228;2022-07-23T12:35:49;27.50;60.20
2897;DHT22;1458;49.728;9.228;2022-07-23T12:38:19;27.40;60.70
2897;DHT22;1458;49.728;9.228;2022-07-23T12:40:50;27.20;60.60
2897;DHT22;1458;49.728;9.228;2022-07-23T12:43:21;27.00;60.90
2897;DHT22;1458;49.728;9.228;2022-07-23T12:45:52;27.10;60.70
2897;DHT22;1458;49.728;9.228;2022-07-23T12:48:24;27.60;60.20
2897;DHT22;1458;49.728;9.228;2022-07-23T12:50:58;28.00;58.00
2897;DHT22;1458;49.728;9.228;2022-07-23T12:53:29;27.90;57.60
2897;DHT22;1458;49.728;9.228;2022-07-23T12:56:01;28.00;55.50
2897;DHT22;1458;49.728;9.228;2022-07-23T12:58:44;28.40;54.30
2897;DHT22;1458;49.728;9.228;2022-07-23T13:01:23;28.80;50.40
2897;DHT22;1458;49.728;9.228;2022-07-23T13:03:59;28.70;51.20
2897;DHT22;1458;49.728;9.228;2022-07-23T13:06:31;28.30;51.50
2897;DHT22;1458;49.728;9.228;2022-07-23T13:09:04;28.30;53.00
2897;DHT22;1458;49.728;9.228;2022-07-23T13:11:33;28.30;49.60
2897;DHT22;1458;49.728;9.228;2022-07-23T13:14:02;28.20;50.10
2897;DHT22;1458;49.728;9.228;2022-07-23T13:16:31;28.10;49.40
2897;DHT22;1458;49.728;9.228;2022-07-23T13:19:00;28.00;50.90
2897;DHT22;1458;49.728;9.228;2022-07-23T13:21:29;27.70;50.10
2897;DHT22;1458;49.728;9.228;2022-07-23T13:23:57;27.80;51.10
2897;DHT22;1458;49.728;9.228;2022-07-23T13:26:27;28.00;51.60
2897;DHT22;1458;49.728;9.228;2022-07-23T13:28:54;27.90;50.50
2897;DHT22;1458;49.728;9.228;2022-07-23T13:31:22;27.70;49.50
2897;DHT22;1458;49.728;9.228;2022-07-23T13:33:50;27.50;48.30
2897;DHT22;1458;49.728;9.228;2022-07-23T13:36:17;27.30;50.20
2897;DHT22;1458;49.728;9.228;2022-07-23T13:38:44;27.30;49.80
2897;DHT22;1458;49.728;9.228;2022-07-23T13:41:12;27.30;52.10
2897;DHT22;1458;49.728;9.228;2022-07-23T13:43:44;27.30;51.20
2897;DHT22;1458;49.728;9.228;2022-07-23T13:46:12;27.50;50.60
2897;DHT22;1458;49.728;9.228;2022-07-23T13:48:39;27.60;48.30
2897;DHT22;1458;49.728;9.228;2022-07-23T13:51:07;27.70;49.40
2897;DHT22;1458;49.728;9.228;2022-07-23T13:53:35;27.90;48.20
2897;DHT22;1458;49.728;9.228;2022-07-23T13:56:05;28.20;48.00
2897;DHT22;1458;49.728;9.228;2022-07-23T13:58:33;28.20;47.60
2897;DHT22;1458;49.728;9.228;2022-07-23T14:01:02;28.50;46.90
2897;DHT22;1458;49.728;9.228;2022-07-23T14:03:32;29.10;45.00
2897;DHT22;1458;49.728;9.228;2022-07-23T14:05:59;29.10;42.70
2897;DHT22;1458;49.728;9.228;2022-07-23T14:08:27;28.80;42.80
2897;DHT22;1458;49.728;9.228;2022-07-23T14:10:54;28.40;43.90
2897;DHT22;1458;49.728;9.228;2022-07-23T14:13:22;28.00;45.10
2897;DHT22;1458;49.728;9.228;2022-07-23T14:15:49;27.70;45.70
2897;DHT22;1458;49.728;9.228;2022-07-23T14:18:19;27.60;46.90
2897;DHT22;1458;49.728;9.228;2022-07-23T14:20:46;27.30;47.60
2897;DHT22;1458;49.728;9.228;2022-07-23T14:23:14;27.20;48.50
2897;DHT22;1458;49.728;9.228;2022-07-23T14:25:43;27.20;49.10
2897;DHT22;1458;49.728;9.228;2022-07-23T14:28:11;27.10;50.70
2897;DHT22;1458;49.728;9.228;2022-07-23T14:30:38;27.10;50.30
2897;DHT22;1458;49.728;9.228;2022-07-23T14:33:06;27.30;50.10
2897;DHT22;1458;49.728;9.228;2022-07-23T14:35:35;27.50;50.10
2897;DHT22;1458;49.728;9.228;2022-07-23T14:38:02;27.70;47.30
2897;DHT22;1458;49.728;9.228;2022-07-23T14:40:30;28.10;46.50
2897;DHT22;1458;49.728;9.228;2022-07-23T14:42:57;28.40;46.40
2897;DHT22;1458;49.728;9.228;2022-07-23T14:45:25;28.60;44.90
2897;DHT22;1458;49.728;9.228;2022-07-23T14:47:54;29.00;42.70
2897;DHT22;1458;49.728;9.228;2022-07-23T14:50:22;29.40;40.70
2897;DHT22;1458;49.728;9.228;2022-07-23T14:52:51;29.20;38.50
2897;DHT22;1458;49.728;9.228;2022-07-23T14:55:19;29.10;40.30
2897;DHT22;1458;49.728;9.228;2022-07-23T14:57:46;28.50;42.00
2897;DHT22;1458;49.728;9.228;2022-07-23T15:00:14;27.80;43.50
2897;DHT22;1458;49.728;9.228;2022-07-23T15:02:43;27.40;46.20
2897;DHT22;1458;49.728;9.228;2022-07-23T15:05:10;27.30;48.00
2897;DHT22;1458;49.728;9.228;2022-07-23T15:07:38;27.20;46.60
2897;DHT22;1458;49.728;9.228;2022-07-23T15:10:08;27.20;48.00
2897;DHT22;1458;49.728;9.228;2022-07-23T15:12:35;27.30;47.80
2897;DHT22;1458;49.728;9.228;2022-07-23T15:15:03;27.60;45.80
2897;DHT22;1458;49.728;9.228;2022-07-23T15:17:32;27.80;45.10
2897;DHT22;1458;49.728;9.228;2022-07-23T15:20:01;27.80;44.10
2897;DHT22;1458;49.728;9.228;2022-07-23T15:22:29;27.60;44.50
2897;DHT22;1458;49.728;9.228;2022-07-23T15:24:56;27.50;44.90
2897;DHT22;1458;49.728;9.228;2022-07-23T15:27:26;27.40;44.50
2897;DHT22;1458;49.728;9.228;2022-07-23T15:29:54;27.30;44.30
2897;DHT22;1458;49.728;9.228;2022-07-23T15:32:21;27.30;44.70
2897;DHT22;1458;49.728;9.228;2022-07-23T15:34:50;27.40;46.10
2897;DHT22;1458;49.728;9.228;2022-07-23T15:37:18;27.50;44.70
2897;DHT22;1458;49.728;9.228;2022-07-23T15:39:46;27.50;44.30
2897;DHT22;1458;49.728;9.228;2022-07-23T15:42:13;27.60;45.60
2897;DHT22;1458;49.728;9.228;2022-07-23T15:44:42;27.70;43.70
2897;DHT22;1458;49.728;9.228;2022-07-23T15:47:12;27.80;43.60
2897;DHT22;1458;49.728;9.228;2022-07-23T15:49:42;28.20;42.70
2897;DHT22;1458;49.728;9.228;2022-07-23T15:52:09;28.10;42.10
2897;DHT22;1458;49.728;9.228;2022-07-23T15:54:37;28.00;41.80
2897;DHT22;1458;49.728;9.228;2022-07-23T15:57:05;27.90;40.70
2897;DHT22;1458;49.728;9.228;2022-07-23T15:59:33;27.80;41.70
2897;DHT22;1458;49.728;9.228;2022-07-23T16:02:03;27.50;41.90
2897;DHT22;1458;49.728;9.228;2022-07-23T16:04:33;27.40;44.00
2897;DHT22;1458;49.728;9.228;2022-07-23T16:07:00;27.40;43.40
2897;DHT22;1458;49.728;9.228;2022-07-23T16:09:28;27.40;43.50
2897;DHT22;1458;49.728;9.228;2022-07-23T16:11:56;27.40;44.20
2897;DHT22;1458;49.728;9.228;2022-07-23T16:14:23;27.40;43.90
2897;DHT22;1458;49.728;9.228;2022-07-23T16:16:52;27.30;44.00
2897;DHT22;1458;49.728;9.228;2022-07-23T16:19:21;27.20;44.30
2897;DHT22;1458;49.728;9.228;2022-07-23T16:21:50;27.30;44.90
2897;DHT22;1458;49.728;9.228;2022-07-23T16:24:18;27.20;44.40
2897;DHT22;1458;49.728;9.228;2022-07-23T16:26:48;27.20;44.00
2897;DHT22;1458;49.728;9.228;2022-07-23T16:29:16;27.40;43.00
2897;DHT22;1458;49.728;9.228;2022-07-23T16:31:44;27.50;43.90
2897;DHT22;1458;49.728;9.228;2022-07-23T16:34:11;27.60;43.00
2897;DHT22;1458;49.728;9.228;2022-07-23T16:36:41;27.70;43.80
2897;DHT22;1458;49.728;9.228;2022-07-23T16:39:08;27.80;41.10
2897;DHT22;1458;49.728;9.228;2022-07-23T16:41:36;27.80;42.60